VVPB/HUI METAR and TAF weather

Enter ICAO airport designator
Station Type Date Time Source
VVPB METAR 2019/04/20 18:30 UTC NOAA

VVPB 201830Z VRB02KT 9999 FEW020 29/24 Q1003 NOSIG


Station Type Date Time Source
VVPB Decoded METAR 2019/04/20 18:30 UTC NOAA

Hue, Vietnam (VVPB) 16-24N 107-41E 17M
Apr 20, 2019 - 02:30 PM EDT / 2019.04.20 1830 UTC
Wind: Variable at 2 MPH (2 KT):0
Visibility: greater than 7 mile(s):0
Sky conditions: mostly clear
Temperature: 84 F (29 C)
Dew Point: 75 F (24 C)
Relative Humidity: 74%
Pressure (altimeter): 29.62 in. Hg (1003 hPa)
ob: VVPB 201830Z VRB02KT 9999 FEW020 29/24 Q1003 NOSIG
cycle: 18

Station Type Date Time Source
VVPB TAF 2019/04/20 18:00 UTC NOAA

TAF VVPB 201700Z 2018/2118 20003KT 8000 FEW015
BECMG 2104/2105 11010KT
TEMPO 2108/2112 TS FEW013 FEW015CB SCT060
BECMG 2114/2115 21004KT

Example: see airport list